createdAt,value
2018-02-21T00:01:56.452Z,54.80
2018-02-21T00:04:25.630Z,51.33
2018-02-21T00:06:54.724Z,54.50
2018-02-21T00:09:23.308Z,55.57
2018-02-21T00:11:53.419Z,56.27
2018-02-21T00:14:21.882Z,47.70
2018-02-21T00:16:50.563Z,50.67
2018-02-21T00:19:19.274Z,56.23
2018-02-21T00:21:47.656Z,52.33
2018-02-21T00:24:16.420Z,49.67
2018-02-21T00:26:44.780Z,52.30
2018-02-21T00:29:13.840Z,48.60
2018-02-21T00:31:42.700Z,48.17
2018-02-21T00:34:11.788Z,50.43
2018-02-21T00:36:40.121Z,49.57
2018-02-21T00:39:09.384Z,47.43
2018-02-21T00:41:38.546Z,51.23
2018-02-21T00:44:07.093Z,47.80
2018-02-21T00:46:35.692Z,48.53
2018-02-21T00:49:04.057Z,49.37
2018-02-21T00:51:33.204Z,49.07
2018-02-21T00:54:01.869Z,49.93
2018-02-21T00:56:30.252Z,50.47
2018-02-21T00:59:00.716Z,51.13
2018-02-21T01:01:29.726Z,45.60
2018-02-21T01:03:58.076Z,48.57
2018-02-21T01:06:26.537Z,48.47
2018-02-21T01:08:54.883Z,47.97
2018-02-21T01:11:23.435Z,45.33
2018-02-21T01:13:52.124Z,47.17
2018-02-21T01:16:22.206Z,47.10
2018-02-21T01:18:50.589Z,44.37
2018-02-21T01:21:18.882Z,44.17
2018-02-21T01:23:48.038Z,45.23
2018-02-21T01:26:18.089Z,52.60
2018-02-21T01:28:48.234Z,45.30
2018-02-21T01:31:19.229Z,49.30
2018-02-21T01:33:47.629Z,52.93
2018-02-21T01:36:18.808Z,44.50
2018-02-21T01:38:47.573Z,46.07
2018-02-21T01:41:17.671Z,41.47
2018-02-21T01:43:46.033Z,45.47
2018-02-21T01:46:16.091Z,45.43
2018-02-21T01:51:19.230Z,43.50
2018-02-21T01:53:47.653Z,44.27
2018-02-21T01:56:16.044Z,48.43
2018-02-21T01:58:46.104Z,47.97
2018-02-21T02:01:15.262Z,49.47
2018-02-21T02:03:44.396Z,40.37
2018-02-21T02:06:14.807Z,46.80
2018-02-21T02:08:44.180Z,50.90
2018-02-21T02:11:14.289Z,46.43
2018-02-21T02:13:43.704Z,47.70
2018-02-21T02:16:13.624Z,46.77
2018-02-21T02:18:44.297Z,47.00
2018-02-21T02:21:12.688Z,50.80
2018-02-21T02:23:41.017Z,41.33
2018-02-21T02:26:11.977Z,50.37
2018-02-21T02:28:40.963Z,54.23
2018-02-21T02:31:11.881Z,54.80
2018-02-21T02:33:40.971Z,51.00
2018-02-21T02:36:11.117Z,52.70
2018-02-21T02:38:46.732Z,46.60
2018-02-21T02:41:18.807Z,48.47
2018-02-21T02:43:47.120Z,57.10
2018-02-21T02:46:16.444Z,51.57
2018-02-21T02:48:44.785Z,51.83
2018-02-21T02:51:14.847Z,55.60
2018-02-21T02:53:43.237Z,50.43
2018-02-21T02:56:11.653Z,55.33
2018-02-21T02:58:40.070Z,52.37
2018-02-21T03:01:08.408Z,54.60
2018-02-21T03:03:37.301Z,54.10
2018-02-21T03:06:05.639Z,48.43
2018-02-21T03:08:36.169Z,51.03
2018-02-21T03:11:04.547Z,52.77
2018-02-21T03:13:33.308Z,54.87
2018-02-21T03:16:02.526Z,50.27
2018-02-21T03:18:30.829Z,53.03
2018-02-21T03:20:59.595Z,52.50
2018-02-21T03:23:27.895Z,46.87
2018-02-21T03:25:59.361Z,54.47
2018-02-21T03:28:29.828Z,54.90
2018-02-21T03:31:00.041Z,56.17
2018-02-21T03:33:28.495Z,52.27
2018-02-21T03:35:57.565Z,51.30
2018-02-21T03:38:25.925Z,46.90
2018-02-21T03:40:55.852Z,51.57
2018-02-21T03:43:24.233Z,48.47
2018-02-21T03:45:52.572Z,45.70
2018-02-21T03:48:21.050Z,41.70
2018-02-21T03:50:49.433Z,49.23
2018-02-21T03:53:17.757Z,43.20
2018-02-21T03:55:46.147Z,47.33
2018-02-21T03:58:14.632Z,48.30
2018-02-21T04:00:42.988Z,48.73
2018-02-21T04:03:11.426Z,45.17
2018-02-21T04:05:39.805Z,45.97
2018-02-21T04:08:08.137Z,48.40
2018-02-21T04:10:36.486Z,42.87
2018-02-21T04:13:04.885Z,46.43
2018-02-21T04:15:33.519Z,46.40
2018-02-21T04:18:02.615Z,46.93
2018-02-21T04:20:33.250Z,43.43
2018-02-21T04:23:02.653Z,50.20
2018-02-21T04:25:31.903Z,43.93
2018-02-21T04:28:00.196Z,41.83
2018-02-21T04:30:30.392Z,43.33
2018-02-21T04:32:58.827Z,42.87
2018-02-21T04:35:29.810Z,44.40
2018-02-21T04:37:58.260Z,47.10
2018-02-21T04:40:28.737Z,47.93
2018-02-21T04:42:57.084Z,46.40
2018-02-21T04:45:27.159Z,47.57
2018-02-21T04:47:55.592Z,45.33
2018-02-21T04:50:25.627Z,45.60
2018-02-21T04:52:54.032Z,48.03
2018-02-21T04:55:24.116Z,44.90
2018-02-21T04:58:10.923Z,51.13
2018-02-21T05:00:40.070Z,50.53
2018-02-21T05:03:08.565Z,50.43
2018-02-21T05:05:38.861Z,52.90
2018-02-21T05:08:09.756Z,47.20
2018-02-21T05:10:39.826Z,52.07
2018-02-21T05:13:09.938Z,54.87
2018-02-21T05:15:39.093Z,51.50
2018-02-21T05:18:07.578Z,57.57
2018-02-21T05:20:35.964Z,49.40
2018-02-21T05:23:04.474Z,53.37
2018-02-21T05:25:33.739Z,56.50
2018-02-21T05:28:02.822Z,50.83
2018-02-21T05:30:32.880Z,55.20
2018-02-21T05:33:02.046Z,52.40
2018-02-21T05:35:30.405Z,52.60
2018-02-21T05:37:58.805Z,51.40
2018-02-21T05:40:28.984Z,54.07
2018-02-21T05:42:58.398Z,51.17
2018-02-21T05:45:28.488Z,56.90
2018-02-21T05:47:57.589Z,51.90
2018-02-21T05:50:25.966Z,60.20
2018-02-21T05:52:54.362Z,55.87
2018-02-21T05:55:23.041Z,51.37
2018-02-21T05:57:51.392Z,52.30
2018-02-21T06:00:19.824Z,52.17
2018-02-21T06:02:48.162Z,57.03
2018-02-21T06:05:16.640Z,54.57
2018-02-21T06:07:47.623Z,50.03
2018-02-21T06:10:16.741Z,54.77
2018-02-21T06:12:45.180Z,55.83
2018-02-21T06:15:13.536Z,58.97
2018-02-21T06:17:41.973Z,57.50
2018-02-21T06:20:10.363Z,57.77
2018-02-21T06:22:39.008Z,53.00
2018-02-21T06:25:07.402Z,63.80
2018-02-21T06:27:37.461Z,58.60
2018-02-21T06:30:05.876Z,57.33
2018-02-21T06:32:34.277Z,56.23
2018-02-21T06:35:05.544Z,56.10
2018-02-21T06:37:33.886Z,56.67
2018-02-21T06:40:02.365Z,65.97
2018-02-21T06:42:30.681Z,58.97
2018-02-21T06:45:02.048Z,62.77
2018-02-21T06:47:30.405Z,54.33
2018-02-21T06:50:00.538Z,63.13
2018-02-21T06:52:28.921Z,65.83
2018-02-21T06:54:57.280Z,57.17
2018-02-21T06:57:26.402Z,53.30
2018-02-21T06:59:54.721Z,63.10
2018-02-21T07:02:35.743Z,56.97
2018-02-21T07:05:04.830Z,56.87
2018-02-21T07:07:33.266Z,53.70
2018-02-21T07:10:03.909Z,59.50
2018-02-21T07:12:32.333Z,60.03
2018-02-21T07:15:00.721Z,56.10
2018-02-21T07:17:29.095Z,55.07
2018-02-21T07:19:57.476Z,59.77
2018-02-21T07:22:25.951Z,56.90
2018-02-21T07:24:54.323Z,56.37
2018-02-21T07:27:22.628Z,57.33
2018-02-21T07:29:50.982Z,57.83
2018-02-21T07:32:19.261Z,54.67
2018-02-21T07:34:47.671Z,55.97
2018-02-21T07:37:16.021Z,60.07
2018-02-21T07:39:44.275Z,59.23
2018-02-21T07:42:12.690Z,60.20
2018-02-21T07:44:42.991Z,57.73
2018-02-21T07:47:16.199Z,55.93
2018-02-21T07:49:49.087Z,56.83
2018-02-21T07:52:19.611Z,60.80
2018-02-21T07:54:47.980Z,58.03
2018-02-21T07:57:16.381Z,64.60
2018-02-21T07:59:44.748Z,62.53
2018-02-21T08:02:14.857Z,62.40
2018-02-21T08:04:43.319Z,64.70
2018-02-21T08:07:11.704Z,59.83
2018-02-21T08:09:41.961Z,65.97
2018-02-21T08:12:12.965Z,67.23
2018-02-21T08:14:43.606Z,67.17
2018-02-21T08:17:12.667Z,58.37
2018-02-21T08:19:41.001Z,71.53
2018-02-21T08:22:09.488Z,72.10
2018-02-21T08:24:37.856Z,74.23
2018-02-21T08:27:06.249Z,62.33
2018-02-21T08:29:34.628Z,57.93
2018-02-21T08:32:03.783Z,72.23
2018-02-21T08:34:32.182Z,63.50
2018-02-21T08:37:00.503Z,67.37
2018-02-21T08:39:30.563Z,68.07
2018-02-21T08:41:59.101Z,68.17
2018-02-21T08:44:27.430Z,63.53
2018-02-21T08:46:55.801Z,62.20
2018-02-21T08:49:24.174Z,74.27
2018-02-21T08:51:52.554Z,65.47
2018-02-21T08:54:21.047Z,70.20
2018-02-21T08:56:49.372Z,63.07
2018-02-21T08:59:17.855Z,68.43
2018-02-21T09:01:46.188Z,70.33
2018-02-21T09:04:14.563Z,65.77
2018-02-21T09:06:43.089Z,66.00
2018-02-21T09:09:11.438Z,70.63
2018-02-21T09:11:39.986Z,73.37
2018-02-21T09:14:12.891Z,66.30
2018-02-21T09:16:43.112Z,67.47
2018-02-21T09:19:13.112Z,67.87
2018-02-21T09:21:43.446Z,66.37
2018-02-21T09:24:12.695Z,65.80
2018-02-21T09:26:41.105Z,68.97
2018-02-21T09:29:13.389Z,69.87
2018-02-21T09:31:41.811Z,71.27
2018-02-21T09:34:10.147Z,68.63
2018-02-21T09:36:38.521Z,69.63
2018-02-21T09:39:06.855Z,67.00
2018-02-21T09:41:35.999Z,65.17
2018-02-21T09:44:06.971Z,67.93
2018-02-21T09:46:35.326Z,69.47
2018-02-21T09:49:05.542Z,66.33
2018-02-21T09:51:37.006Z,70.20
2018-02-21T09:54:05.636Z,79.23
2018-02-21T09:56:34.083Z,65.43
2018-02-21T09:59:03.066Z,73.03
2018-02-21T10:01:31.514Z,66.93
2018-02-21T10:03:59.824Z,66.13
2018-02-21T10:06:30.836Z,68.20
2018-02-21T10:08:59.212Z,73.10
2018-02-21T10:11:27.592Z,70.40
2018-02-21T10:13:56.014Z,73.97
2018-02-21T10:16:24.345Z,72.93
2018-02-21T10:18:52.749Z,61.60
2018-02-21T10:21:22.602Z,63.20
2018-02-21T10:23:51.093Z,68.57
2018-02-21T10:26:22.125Z,69.30
2018-02-21T10:28:51.006Z,74.60
2018-02-21T10:31:21.134Z,69.37
2018-02-21T10:33:49.558Z,69.03
2018-02-21T10:36:18.756Z,69.43
2018-02-21T10:38:50.479Z,68.47
2018-02-21T10:41:18.988Z,63.17
2018-02-21T10:43:49.051Z,66.80
2018-02-21T10:46:17.588Z,61.60
2018-02-21T10:48:46.784Z,66.53
2018-02-21T10:51:15.162Z,69.33
2018-02-21T10:53:43.514Z,63.13
2018-02-21T10:56:11.884Z,70.90
2018-02-21T10:58:40.245Z,64.40
2018-02-21T11:01:15.794Z,70.03
2018-02-21T11:03:44.141Z,62.73
2018-02-21T11:06:12.503Z,70.23
2018-02-21T11:08:40.878Z,64.40
2018-02-21T11:11:11.448Z,64.57
2018-02-21T11:13:39.786Z,71.10
2018-02-21T11:16:08.086Z,65.00
2018-02-21T11:18:38.404Z,62.37
2018-02-21T11:21:07.612Z,65.80
2018-02-21T11:23:39.373Z,63.50
2018-02-21T11:26:07.749Z,66.20
2018-02-21T11:28:39.072Z,64.17
2018-02-21T11:31:07.656Z,59.77
2018-02-21T11:33:36.052Z,58.73
2018-02-21T11:36:06.358Z,64.00
2018-02-21T11:38:40.160Z,58.13
2018-02-21T11:41:08.574Z,63.00
2018-02-21T11:43:38.971Z,56.40
2018-02-21T11:46:08.062Z,50.37
2018-02-21T11:48:39.378Z,75.93
2018-02-21T11:51:09.433Z,60.07
2018-02-21T11:53:37.922Z,58.83
2018-02-21T11:56:06.366Z,60.73
2018-02-21T11:58:34.703Z,52.27
2018-02-21T12:01:03.066Z,54.67
2018-02-21T12:03:31.414Z,53.83
2018-02-21T12:06:02.362Z,50.00
2018-02-21T12:08:30.749Z,74.63
2018-02-21T12:10:59.204Z,59.80
2018-02-21T12:13:27.521Z,57.97
2018-02-21T12:15:55.900Z,52.83
2018-02-21T12:18:24.202Z,55.87
2018-02-21T12:20:52.541Z,57.30
2018-02-21T12:23:21.733Z,57.63
2018-02-21T12:25:50.067Z,53.07
2018-02-21T12:28:21.087Z,66.57
2018-02-21T12:30:49.425Z,68.47
2018-02-21T12:33:18.543Z,67.13
2018-02-21T12:35:48.740Z,68.07
2018-02-21T12:38:18.601Z,66.93
2018-02-21T12:40:52.567Z,63.67
2018-02-21T12:43:20.960Z,66.53
2018-02-21T12:45:49.260Z,66.80
2018-02-21T12:48:17.564Z,66.37
2018-02-21T12:50:47.586Z,67.77
2018-02-21T12:53:15.965Z,59.80
2018-02-21T12:55:45.046Z,61.73
2018-02-21T12:58:13.525Z,54.03
2018-02-21T13:00:42.877Z,65.67
2018-02-21T13:03:11.225Z,57.57
2018-02-21T13:05:39.599Z,59.03
2018-02-21T13:08:09.648Z,62.07
2018-02-21T13:10:39.772Z,58.90
2018-02-21T13:13:08.438Z,59.57
2018-02-21T13:15:36.819Z,55.53
2018-02-21T13:18:05.214Z,59.60
2018-02-21T13:20:33.587Z,52.20
2018-02-21T13:23:01.947Z,53.77
2018-02-21T13:25:30.218Z,52.70
2018-02-21T13:27:58.555Z,55.33
2018-02-21T13:30:26.873Z,54.27
2018-02-21T13:32:55.374Z,51.70
2018-02-21T13:35:23.787Z,48.20
2018-02-21T13:37:55.209Z,49.93
2018-02-21T13:40:23.522Z,52.30
2018-02-21T13:42:52.457Z,53.83
2018-02-21T13:45:20.969Z,57.97
2018-02-21T13:47:49.331Z,58.50
2018-02-21T13:50:17.653Z,60.93
2018-02-21T13:52:46.122Z,59.23
2018-02-21T13:55:16.135Z,54.50
2018-02-21T13:57:44.491Z,57.50
2018-02-21T14:00:12.944Z,57.17
2018-02-21T14:02:44.044Z,62.70
2018-02-21T14:05:12.396Z,54.13
2018-02-21T14:07:40.741Z,52.37
2018-02-21T14:10:09.047Z,49.17
2018-02-21T14:12:37.481Z,45.90
2018-02-21T14:15:05.991Z,50.50
2018-02-21T14:17:34.396Z,56.70
2018-02-21T14:20:04.516Z,61.93
2018-02-21T14:22:32.913Z,56.33
2018-02-21T14:25:01.328Z,45.20
2018-02-21T14:27:31.295Z,53.73
2018-02-21T14:30:01.777Z,59.90
2018-02-21T14:32:30.869Z,43.27
2018-02-21T14:35:01.321Z,51.23
2018-02-21T14:37:29.620Z,47.10
2018-02-21T14:39:58.168Z,49.30
2018-02-21T14:42:26.532Z,40.93
2018-02-21T14:44:54.918Z,44.93
2018-02-21T14:47:23.974Z,45.17
2018-02-21T14:49:52.316Z,45.37
2018-02-21T14:52:22.503Z,48.43
2018-02-21T14:54:52.657Z,50.73
2018-02-21T14:57:21.110Z,43.20
2018-02-21T14:59:49.719Z,40.93
2018-02-21T15:02:20.973Z,45.73
2018-02-21T15:04:50.064Z,47.97
2018-02-21T15:07:18.369Z,41.70
2018-02-21T15:09:46.680Z,42.00
2018-02-21T15:12:15.027Z,40.20
2018-02-21T15:14:43.401Z,45.13
2018-02-21T15:17:14.578Z,44.77
2018-02-21T15:19:42.959Z,45.20
2018-02-21T15:22:12.874Z,42.23
2018-02-21T15:24:42.041Z,48.33
2018-02-21T15:27:10.389Z,43.93
2018-02-21T15:29:38.729Z,39.83
2018-02-21T15:32:08.327Z,40.37
2018-02-21T15:34:36.654Z,41.63
2018-02-21T15:37:05.024Z,37.40
2018-02-21T15:39:34.120Z,38.13
2018-02-21T15:42:04.454Z,38.30
2018-02-21T15:44:35.327Z,39.50
2018-02-21T15:47:05.835Z,36.30
2018-02-21T15:49:36.030Z,34.00
2018-02-21T15:52:04.458Z,38.20
2018-02-21T15:54:32.812Z,44.03
2018-02-21T15:57:01.945Z,35.07
2018-02-21T15:59:31.237Z,42.50
2018-02-21T16:01:59.770Z,34.87
2018-02-21T16:04:28.058Z,33.60
2018-02-21T16:06:56.436Z,36.47
2018-02-21T16:09:26.673Z,39.37
2018-02-21T16:11:57.454Z,33.10
2018-02-21T16:14:25.772Z,37.33
2018-02-21T16:16:54.048Z,39.10
2018-02-21T16:19:24.120Z,34.10
2018-02-21T16:21:52.529Z,41.50
2018-02-21T16:24:23.529Z,45.03
2018-02-21T16:26:54.551Z,36.20
2018-02-21T16:29:23.200Z,41.77
2018-02-21T16:31:51.583Z,38.83
2018-02-21T16:34:20.032Z,38.70
2018-02-21T16:36:48.451Z,36.67
2018-02-21T16:39:18.639Z,43.23
2018-02-21T16:41:47.353Z,42.43
2018-02-21T16:44:21.484Z,40.90
2018-02-21T16:46:49.999Z,42.33
2018-02-21T16:49:18.280Z,42.90
2018-02-21T16:51:46.831Z,45.40
2018-02-21T16:54:17.652Z,36.33
2018-02-21T16:56:45.977Z,47.67
2018-02-21T16:59:14.424Z,44.60
2018-02-21T17:01:42.908Z,44.50
2018-02-21T17:04:11.298Z,49.60
2018-02-21T17:06:42.254Z,40.40
2018-02-21T17:09:10.673Z,53.87
2018-02-21T17:11:40.013Z,47.73
2018-02-21T17:14:08.573Z,51.10
2018-02-21T17:16:36.951Z,47.53
2018-02-21T17:19:05.419Z,45.93
2018-02-21T17:21:34.559Z,51.33
2018-02-21T17:24:03.824Z,47.87
2018-02-21T17:26:33.667Z,43.57
2018-02-21T17:29:03.079Z,45.70
2018-02-21T17:31:33.198Z,43.30
2018-02-21T17:34:03.415Z,44.03
2018-02-21T17:36:31.864Z,42.77
2018-02-21T17:39:02.855Z,57.03
2018-02-21T17:41:33.111Z,41.73
2018-02-21T17:44:01.475Z,45.27
2018-02-21T17:46:30.576Z,47.63
2018-02-21T17:49:00.759Z,47.60
2018-02-21T17:51:29.211Z,50.30
2018-02-21T17:53:57.627Z,44.77
2018-02-21T17:56:27.774Z,48.70
2018-02-21T17:58:57.093Z,47.53
2018-02-21T18:01:25.543Z,50.63
2018-02-21T18:03:56.195Z,45.40
2018-02-21T18:06:26.934Z,45.60
2018-02-21T18:08:57.041Z,42.60
2018-02-21T18:11:28.323Z,51.40
2018-02-21T18:13:56.678Z,43.93
2018-02-21T18:16:26.753Z,47.00
2018-02-21T18:18:55.173Z,49.37
2018-02-21T18:21:31.245Z,48.83
2018-02-21T18:37:02.401Z,50.83
2018-02-21T18:39:31.704Z,48.73
2018-02-21T18:42:00.248Z,45.83
2018-02-21T18:44:28.594Z,53.40
2018-02-21T18:46:57.122Z,49.50
2018-02-21T18:49:25.479Z,52.10
2018-02-21T18:51:53.896Z,46.93
2018-02-21T18:54:24.231Z,54.00
2018-02-21T18:56:54.941Z,54.70
2018-02-21T18:59:23.511Z,47.83
2018-02-21T19:01:56.085Z,52.73
2018-02-21T19:04:25.110Z,50.40
2018-02-21T19:06:55.038Z,54.30
2018-02-21T19:09:24.168Z,55.13
2018-02-21T19:11:52.525Z,50.80
2018-02-21T19:14:21.759Z,51.53
2018-02-21T19:16:50.394Z,46.50
2018-02-21T19:19:19.200Z,49.10
2018-02-21T19:21:49.279Z,43.53
2018-02-21T19:24:20.048Z,48.23
2018-02-21T19:26:51.158Z,43.17
2018-02-21T19:29:20.638Z,49.17
2018-02-21T19:31:49.723Z,48.23
2018-02-21T19:34:18.217Z,49.17
2018-02-21T19:36:47.648Z,46.40
2018-02-21T19:39:20.462Z,45.77
2018-02-21T19:41:50.009Z,49.00
2018-02-21T19:44:18.406Z,51.50
2018-02-21T19:46:46.871Z,50.60
2018-02-21T19:49:16.392Z,43.80
2018-02-21T19:51:46.487Z,50.20
2018-02-21T19:54:14.968Z,46.63
2018-02-21T19:56:43.564Z,44.30
2018-02-21T19:59:12.352Z,45.77
2018-02-21T20:01:40.839Z,44.03
2018-02-21T20:04:13.263Z,50.93
2018-02-21T20:16:27.726Z,52.37
2018-02-21T20:18:56.208Z,53.80
2018-02-21T20:21:27.283Z,53.63
2018-02-21T20:23:56.360Z,56.00
2018-02-21T20:26:25.761Z,46.30
2018-02-21T20:28:54.141Z,46.67
2018-02-21T20:31:24.772Z,43.57
2018-02-21T20:33:53.355Z,48.47
2018-02-21T20:36:22.128Z,43.10
2018-02-21T20:38:50.504Z,44.33
2018-02-21T20:41:20.349Z,39.33
2018-02-21T20:43:48.703Z,43.33
2018-02-21T20:46:17.598Z,46.83
2018-02-21T20:48:46.087Z,44.27
2018-02-21T20:51:15.449Z,45.77
2018-02-21T20:53:43.848Z,48.93
2018-02-21T20:56:14.069Z,49.57
2018-02-21T20:58:45.009Z,46.73
2018-02-21T21:01:15.758Z,51.23
2018-02-21T21:03:44.169Z,42.67
2018-02-21T21:06:14.136Z,47.03
2018-02-21T21:08:42.940Z,44.30
2018-02-21T21:11:13.056Z,44.30
2018-02-21T21:13:41.944Z,45.30
2018-02-21T21:16:13.793Z,47.20
2018-02-21T21:18:43.204Z,44.70
2018-02-21T21:21:13.759Z,45.63
2018-02-21T21:23:43.856Z,45.43
2018-02-21T21:26:13.558Z,40.13
2018-02-21T21:28:42.452Z,41.63
2018-02-21T21:31:10.883Z,43.00
2018-02-21T21:33:43.450Z,47.27
2018-02-21T21:36:12.405Z,46.30
2018-02-21T21:38:42.134Z,42.27
2018-02-21T21:41:10.542Z,37.97
2018-02-21T21:43:41.001Z,50.73
2018-02-21T21:46:14.027Z,39.97
2018-02-21T21:48:43.930Z,46.93
2018-02-21T21:51:12.295Z,44.20
2018-02-21T21:56:13.908Z,38.97
2018-02-21T21:58:43.107Z,44.50
2018-02-21T22:01:12.490Z,49.50
2018-02-21T22:03:41.379Z,44.33
2018-02-21T22:06:12.297Z,46.37
2018-02-21T22:08:40.882Z,42.00
2018-02-21T22:11:10.671Z,52.93
2018-02-21T22:13:40.919Z,43.20
2018-02-21T22:16:11.130Z,45.30
2018-02-21T22:18:39.671Z,44.70
2018-02-21T22:21:09.424Z,50.63
2018-02-21T22:23:39.535Z,45.60
2018-02-21T22:26:07.922Z,42.40
2018-02-21T22:28:36.868Z,41.53
2018-02-21T22:31:05.173Z,44.27
2018-02-21T22:33:34.108Z,42.17
2018-02-21T22:36:02.496Z,35.87
2018-02-21T22:38:30.934Z,37.30
2018-02-21T22:40:59.304Z,37.60
2018-02-21T22:43:28.138Z,30.37
2018-02-21T22:46:00.056Z,34.67
2018-02-21T22:48:30.308Z,34.50
2018-02-21T22:50:58.729Z,30.53
2018-02-21T22:53:28.059Z,37.67
2018-02-21T22:55:56.350Z,35.77
2018-02-21T22:58:25.448Z,35.27
2018-02-21T23:00:55.966Z,34.33
2018-02-21T23:03:24.960Z,36.93
2018-02-21T23:05:53.336Z,34.47
2018-02-21T23:08:22.543Z,31.87
2018-02-21T23:10:53.739Z,31.53
2018-02-21T23:13:23.210Z,29.87
2018-02-21T23:15:51.577Z,33.30
2018-02-21T23:18:19.995Z,29.80
2018-02-21T23:20:48.348Z,27.13
2018-02-21T23:23:17.434Z,30.93
2018-02-21T23:25:45.888Z,31.23
2018-02-21T23:28:14.275Z,36.57
2018-02-21T23:30:43.618Z,37.30
2018-02-21T23:33:12.165Z,33.83
2018-02-21T23:35:40.499Z,34.77
2018-02-21T23:38:11.404Z,35.57
2018-02-21T23:40:39.857Z,33.60
2018-02-21T23:43:09.909Z,32.13
2018-02-21T23:45:38.212Z,35.10
2018-02-21T23:48:06.650Z,34.90
2018-02-21T23:50:37.211Z,36.50
2018-02-21T23:53:06.312Z,35.67
2018-02-21T23:55:34.654Z,36.20
2018-02-21T23:58:05.651Z,33.03
